Time;durP1;ratioP1;P1;durP2;ratioP2;P2;SDS_P1;SDS_P2;PMS_P1;PMS_P2;Temp;Humidity;BMP_temperature;BMP_pressure;BME280_temperature;BME280_humidity;BME280_pressure;Samples;Min_cycle;Max_cycle;Signal;HPM_P1;HPM_P2
2023/03/18 00:00:33;;;;;;;18.63;12.38;;;12.00;99.90;;;;;;5034570;28;20398;-66
2023/03/18 00:02:58;;;;;;;15.30;11.75;;;12.00;99.90;;;;;;5066098;28;20103;-66
2023/03/18 00:05:24;;;;;;;19.65;12.30;;;12.00;99.90;;;;;;5034733;28;20049;-66
2023/03/18 00:07:50;;;;;;;19.90;13.45;;;12.00;99.90;;;;;;5034676;28;20033;-66
2023/03/18 00:10:17;;;;;;;19.25;12.95;;;11.90;99.90;;;;;;5034075;28;20696;-66
2023/03/18 00:12:43;;;;;;;20.77;13.55;;;11.90;99.90;;;;;;5066275;28;20053;-66
2023/03/18 00:15:12;;;;;;;17.35;13.05;;;11.90;99.90;;;;;;5066222;28;20088;-66
2023/03/18 00:17:40;;;;;;;17.85;14.02;;;11.90;99.90;;;;;;5033672;28;20124;-66
2023/03/18 00:20:08;;;;;;;20.20;13.40;;;11.80;99.90;;;;;;5033277;28;20053;-66
2023/03/18 00:22:35;;;;;;;18.98;14.40;;;11.80;99.90;;;;;;5066408;28;20045;-66
2023/03/18 00:25:02;;;;;;;17.85;14.75;;;11.70;99.90;;;;;;5033737;28;20094;-66
2023/03/18 00:27:29;;;;;;;24.55;15.50;;;11.70;99.90;;;;;;5034413;28;20052;-66
2023/03/18 00:29:55;;;;;;;22.25;16.50;;;11.60;99.90;;;;;;5065850;28;20037;-66
2023/03/18 00:32:21;;;;;;;21.25;14.75;;;11.60;99.90;;;;;;5066119;28;20064;-66
2023/03/18 00:34:47;;;;;;;25.65;15.88;;;11.50;99.90;;;;;;5066497;28;20075;-66
2023/03/18 00:37:18;;;;;;;18.35;15.38;;;11.50;99.90;;;;;;5032612;28;20050;-66
2023/03/18 00:39:45;;;;;;;23.58;16.75;;;11.50;99.90;;;;;;5066138;28;20050;-66
2023/03/18 00:42:12;;;;;;;29.85;16.65;;;11.40;99.90;;;;;;5033944;28;20111;-66
2023/03/18 00:44:38;;;;;;;26.80;16.90;;;11.40;99.90;;;;;;5065396;28;20045;-66
2023/03/18 00:47:05;;;;;;;20.15;15.50;;;11.30;99.90;;;;;;5065780;28;20045;-66
2023/03/18 00:49:31;;;;;;;23.13;17.73;;;11.30;99.90;;;;;;5033633;28;20670;-66
2023/03/18 00:51:56;;;;;;;28.48;17.95;;;11.30;99.90;;;;;;5065851;28;20056;-66
2023/03/18 00:54:23;;;;;;;23.30;16.63;;;11.30;99.90;;;;;;5065945;28;20084;-66
2023/03/18 00:56:50;;;;;;;24.48;16.38;;;11.20;99.90;;;;;;5065864;28;20044;-67
2023/03/18 00:59:17;;;;;;;23.02;17.27;;;11.20;99.90;;;;;;5031776;28;20528;-66
2023/03/18 01:01:43;;;;;;;23.40;17.13;;;11.10;99.90;;;;;;5065627;28;20253;-66
2023/03/18 01:04:09;;;;;;;22.45;16.23;;;11.10;99.90;;;;;;5032504;28;20052;-66
2023/03/18 01:06:36;;;;;;;26.30;18.15;;;11.00;99.90;;;;;;5033103;28;20037;-66
2023/03/18 01:09:04;;;;;;;23.90;16.45;;;11.00;99.90;;;;;;5015861;28;20537;-66
2023/03/18 01:11:30;;;;;;;24.50;16.58;;;11.00;99.90;;;;;;5031265;28;20055;-66
2023/03/18 01:13:56;;;;;;;26.38;16.42;;;10.90;99.90;;;;;;5065275;28;20132;-66
2023/03/18 01:16:22;;;;;;;27.08;17.95;;;10.90;99.90;;;;;;5033289;28;20037;-66
2023/03/18 01:18:48;;;;;;;22.60;17.67;;;10.80;99.90;;;;;;5032757;28;20669;-66
2023/03/18 01:21:14;;;;;;;23.38;16.73;;;10.80;99.90;;;;;;5032017;28;20045;-66
2023/03/18 01:23:41;;;;;;;24.00;18.30;;;10.70;99.90;;;;;;5032183;28;20072;-66
2023/03/18 01:26:09;;;;;;;21.88;17.42;;;10.70;99.90;;;;;;5064617;28;20115;-66
2023/03/18 01:28:35;;;;;;;26.77;18.70;;;10.70;99.90;;;;;;5065382;28;20045;-66
2023/03/18 01:31:01;;;;;;;26.27;18.30;;;10.60;99.90;;;;;;5031772;28;20048;-66
2023/03/18 01:33:28;;;;;;;32.17;19.90;;;10.60;99.90;;;;;;5064692;28;20056;-66
2023/03/18 01:35:57;;;;;;;26.73;18.77;;;10.60;99.90;;;;;;5033222;28;20041;-66
2023/03/18 01:38:24;;;;;;;27.60;19.23;;;10.50;99.90;;;;;;5032940;28;20115;-66
2023/03/18 01:40:51;;;;;;;23.85;19.73;;;10.40;99.90;;;;;;5030947;28;20099;-66
2023/03/18 01:43:22;;;;;;;25.00;19.15;;;10.40;99.90;;;;;;5048180;28;20124;-66
2023/03/18 01:45:54;;;;;;;29.20;19.27;;;10.30;99.90;;;;;;5031557;28;20049;-66
2023/03/18 01:48:24;;;;;;;30.17;19.42;;;10.30;99.90;;;;;;5064621;28;20103;-66
2023/03/18 01:51:03;;;;;;;28.35;20.63;;;10.20;99.90;;;;;;5032688;28;20112;-66
2023/03/18 01:53:35;;;;;;;31.30;20.05;;;10.20;99.90;;;;;;5064544;28;20037;-66
2023/03/18 01:56:02;;;;;;;25.40;19.42;;;10.10;99.90;;;;;;5064469;28;20404;-66
2023/03/18 01:58:33;;;;;;;27.45;19.95;;;10.00;99.90;;;;;;5031204;28;20034;-66
2023/03/18 02:01:18;;;;;;;30.48;20.45;;;10.00;99.90;;;;;;5031000;28;20041;-66
2023/03/18 02:03:45;;;;;;;25.77;20.17;;;10.00;99.90;;;;;;5031357;28;20057;-66
2023/03/18 02:06:12;;;;;;;27.23;20.67;;;9.90;99.90;;;;;;5047823;28;20486;-66
2023/03/18 02:08:39;;;;;;;30.98;23.65;;;9.90;99.90;;;;;;5063937;28;20061;-66
2023/03/18 02:11:07;;;;;;;29.23;21.33;;;9.80;99.90;;;;;;5032162;28;20048;-66
2023/03/18 02:13:38;;;;;;;28.83;21.63;;;9.70;99.90;;;;;;5064174;28;20065;-66
2023/03/18 02:16:15;;;;;;;35.03;21.67;;;9.70;99.90;;;;;;5031922;28;20037;-66
2023/03/18 02:18:46;;;;;;;29.30;20.98;;;9.60;99.90;;;;;;5030882;28;20041;-66
2023/03/18 02:21:45;;;;;;;29.35;20.95;;;9.60;99.90;;;;;;5031869;28;20116;-66
2023/03/18 02:24:37;;;;;;;30.80;21.63;;;9.60;99.90;;;;;;5032043;28;20048;-66
2023/03/18 02:27:15;;;;;;;28.83;20.90;;;9.50;99.90;;;;;;5063923;28;20371;-66
2023/03/18 02:29:42;;;;;;;27.88;21.00;;;9.40;99.90;;;;;;5031290;28;20045;-66
2023/03/18 02:32:08;;;;;;;33.92;22.35;;;9.40;99.90;;;;;;5031610;28;20045;-66
2023/03/18 02:34:36;;;;;;;31.85;23.50;;;9.30;99.90;;;;;;5063278;28;20042;-66
2023/03/18 02:37:02;;;;;;;35.38;24.52;;;9.30;99.90;;;;;;5062634;28;20041;-66
2023/03/18 02:39:30;;;;;;;39.72;25.55;;;9.20;99.90;;;;;;5063454;28;20041;-66
2023/03/18 02:41:56;;;;;;;36.08;25.30;;;9.20;99.90;;;;;;5029760;28;20569;-65
2023/03/18 02:44:22;;;;;;;40.97;24.38;;;9.20;99.90;;;;;;5030670;28;20406;-66
2023/03/18 02:47:13;;;;;;;35.20;22.80;;;9.20;99.90;;;;;;5046508;28;20076;-66
2023/03/18 02:49:39;;;;;;;35.53;25.38;;;9.20;99.90;;;;;;5062876;28;20041;-66
2023/03/18 02:52:05;;;;;;;40.38;25.02;;;9.20;99.90;;;;;;5030206;28;20038;-66
2023/03/18 02:54:31;;;;;;;39.17;24.05;;;9.20;99.90;;;;;;5063089;28;20107;-66
2023/03/18 02:56:57;;;;;;;41.85;24.67;;;9.20;99.90;;;;;;5062726;28;20382;-65
2023/03/18 02:59:24;;;;;;;34.38;24.20;;;9.30;99.90;;;;;;5029786;28;20045;-67
2023/03/18 03:01:52;;;;;;;35.13;23.15;;;9.30;99.90;;;;;;5031129;28;20041;-66
2023/03/18 03:04:20;;;;;;;34.85;24.67;;;9.30;99.90;;;;;;5062685;28;20049;-67
2023/03/18 03:06:46;;;;;;;33.83;23.17;;;9.30;99.90;;;;;;5031103;28;20037;-65
2023/03/18 03:09:14;;;;;;;36.13;23.77;;;9.30;99.90;;;;;;5031069;28;20033;-66
2023/03/18 03:11:40;;;;;;;31.63;22.38;;;9.40;99.90;;;;;;5030787;28;20049;-65
2023/03/18 03:14:08;;;;;;;37.03;23.83;;;9.40;99.90;;;;;;5013638;28;20497;-65
2023/03/18 03:16:35;;;;;;;34.38;23.40;;;9.50;99.90;;;;;;5062926;28;20060;-68
2023/03/18 03:19:01;;;;;;;37.55;23.98;;;9.50;99.90;;;;;;5029174;28;20056;-66
2023/03/18 03:21:28;;;;;;;35.65;23.88;;;9.50;99.90;;;;;;5030994;28;20041;-66
2023/03/18 03:23:54;;;;;;;40.15;27.33;;;9.50;99.90;;;;;;5031202;28;20056;-66
2023/03/18 03:26:20;;;;;;;38.42;26.27;;;9.50;99.90;;;;;;5030897;28;20041;-66
2023/03/18 03:28:46;;;;;;;41.03;26.58;;;9.50;99.90;;;;;;5046635;28;20045;-66
2023/03/18 03:31:13;;;;;;;32.30;24.02;;;9.50;99.90;;;;;;5031277;28;20103;-66
2023/03/18 03:33:43;;;;;;;41.72;26.48;;;9.60;99.90;;;;;;5029589;28;20437;-66
2023/03/18 03:36:09;;;;;;;;;;;9.50;99.90;;;;;;5064272;28;20441;-66
2023/03/18 03:38:35;;;;;;;40.42;23.65;;;9.50;99.90;;;;;;5063683;28;20336;-66
2023/03/18 03:41:01;;;;;;;40.00;24.60;;;9.60;99.90;;;;;;5031016;28;20038;-66
2023/03/18 03:43:27;;;;;;;33.08;22.50;;;9.60;99.90;;;;;;5031083;28;20099;-66
2023/03/18 03:45:53;;;;;;;37.72;25.42;;;9.60;99.90;;;;;;5030675;28;20080;-66
2023/03/18 03:48:19;;;;;;;36.47;24.02;;;9.60;99.90;;;;;;5030044;28;20596;-66
2023/03/18 03:50:45;;;;;;;36.40;26.05;;;9.60;99.90;;;;;;5046635;28;20084;-66
2023/03/18 03:53:11;;;;;;;42.95;25.27;;;9.60;99.90;;;;;;5062775;28;20445;-66
2023/03/18 03:55:37;;;;;;;39.72;24.50;;;9.60;99.90;;;;;;5030902;28;20041;-67
2023/03/18 03:58:04;;;;;;;34.85;24.90;;;9.60;99.90;;;;;;5029706;28;20095;-67
2023/03/18 04:00:30;;;;;;;36.35;24.30;;;9.70;99.90;;;;;;5030688;28;20129;-67
2023/03/18 04:02:55;;;;;;;37.53;25.33;;;9.60;99.90;;;;;;5029490;28;20117;-67
2023/03/18 04:05:23;;;;;;;39.88;25.05;;;9.60;99.90;;;;;;5046216;28;20046;-67
2023/03/18 04:07:50;;;;;;;38.65;25.27;;;9.70;99.90;;;;;;5030689;28;20033;-67
2023/03/18 04:10:18;;;;;;;44.83;26.95;;;9.70;99.90;;;;;;5062820;28;20041;-67
2023/03/18 04:12:45;;;;;;;39.47;26.38;;;9.70;99.90;;;;;;5030793;28;20072;-67
2023/03/18 04:15:12;;;;;;;39.00;25.58;;;9.70;99.90;;;;;;5030497;28;20042;-67
2023/03/18 04:17:39;;;;;;;45.15;27.88;;;9.70;99.90;;;;;;5046202;28;20042;-67
2023/03/18 04:20:06;;;;;;;40.95;27.23;;;9.70;99.90;;;;;;5031013;28;20048;-67
2023/03/18 04:22:32;;;;;;;35.20;25.80;;;9.70;99.90;;;;;;5030147;28;20049;-67
2023/03/18 04:24:59;;;;;;;40.40;27.33;;;9.70;99.90;;;;;;5029244;28;20041;-67
2023/03/18 04:27:26;;;;;;;37.40;26.23;;;9.70;99.90;;;;;;5030393;28;20091;-67
2023/03/18 04:29:53;;;;;;;41.13;27.20;;;9.70;99.90;;;;;;5030568;28;20038;-66
2023/03/18 04:32:19;;;;;;;40.17;25.70;;;9.70;99.90;;;;;;5031074;28;20045;-66
2023/03/18 04:34:45;;;;;;;40.78;26.58;;;9.70;99.90;;;;;;5030199;28;20091;-66
2023/03/18 04:37:13;;;;;;;44.42;26.55;;;9.70;99.90;;;;;;5030929;28;20115;-66
2023/03/18 04:39:40;;;;;;;41.95;27.45;;;9.70;99.90;;;;;;5030522;28;20073;-66
2023/03/18 04:42:06;;;;;;;39.75;25.33;;;9.70;99.90;;;;;;5030205;28;20107;-67
2023/03/18 04:44:32;;;;;;;43.70;27.88;;;9.70;99.90;;;;;;5030870;28;20033;-67
2023/03/18 04:46:58;;;;;;;40.22;28.10;;;9.70;99.90;;;;;;5065324;28;20476;-67
2023/03/18 04:49:24;;;;;;;37.45;25.73;;;9.70;99.90;;;;;;5033902;28;20116;-66
2023/03/18 04:51:50;;;;;;;45.25;26.77;;;9.70;99.90;;;;;;5066096;28;20045;-66
2023/03/18 04:54:16;;;;;;;39.22;26.13;;;9.70;99.90;;;;;;5066161;28;20041;-66
2023/03/18 04:56:42;;;;;;;38.55;24.17;;;9.70;99.90;;;;;;5033533;28;20501;-66
2023/03/18 04:59:09;;;;;;;40.85;27.00;;;9.60;99.90;;;;;;5066179;28;20084;-66
2023/03/18 05:01:35;;;;;;;42.33;27.73;;;9.60;99.90;;;;;;5034131;28;20104;-66
2023/03/18 05:04:00;;;;;;;35.10;23.70;;;9.60;99.90;;;;;;5033537;28;20038;-66
2023/03/18 05:06:28;;;;;;;38.78;25.67;;;9.60;99.90;;;;;;5034013;28;20047;-66
2023/03/18 05:08:55;;;;;;;33.92;24.20;;;9.60;99.90;;;;;;5033829;28;20045;-66
2023/03/18 05:11:22;;;;;;;39.78;25.02;;;9.60;99.90;;;;;;5065600;28;20121;-66
2023/03/18 05:13:48;;;;;;;38.13;25.73;;;9.60;99.90;;;;;;5065608;28;20551;-66
2023/03/18 05:16:14;;;;;;;37.63;26.05;;;9.50;99.90;;;;;;5065668;28;20045;-66
2023/03/18 05:18:40;;;;;;;36.03;24.20;;;9.50;99.90;;;;;;5048791;28;20076;-66
2023/03/18 05:21:10;;;;;;;39.80;25.08;;;9.50;99.90;;;;;;5032381;28;20041;-66
2023/03/18 05:23:37;;;;;;;37.33;24.55;;;9.50;99.90;;;;;;5065598;28;20053;-66
2023/03/18 05:26:04;;;;;;;36.63;25.92;;;9.50;99.90;;;;;;5065198;28;20049;-66
2023/03/18 05:28:31;;;;;;;48.47;28.50;;;9.50;99.90;;;;;;5065369;28;20076;-66
2023/03/18 05:30:57;;;;;;;36.22;24.45;;;9.50;99.90;;;;;;5031726;28;20045;-66
2023/03/18 05:33:23;;;;;;;40.42;27.58;;;9.40;99.90;;;;;;5065487;28;20133;-66
2023/03/18 05:35:49;;;;;;;40.53;27.63;;;9.40;99.90;;;;;;5033383;28;20045;-66
2023/03/18 05:38:14;;;;;;;41.92;27.25;;;9.40;99.90;;;;;;5032948;28;20059;-66
2023/03/18 05:40:40;;;;;;;41.03;26.38;;;9.40;99.90;;;;;;5033321;28;20053;-66
2023/03/18 05:43:06;;;;;;;42.13;28.27;;;9.40;99.90;;;;;;5033133;28;20159;-66
2023/03/18 05:45:32;;;;;;;42.55;27.90;;;9.50;99.90;;;;;;5065004;28;20120;-66
2023/03/18 05:47:58;;;;;;;37.28;25.25;;;9.50;99.90;;;;;;5065311;28;20180;-66
2023/03/18 05:50:33;;;;;;;38.33;25.75;;;9.50;99.90;;;;;;5033284;28;20060;-66
2023/03/18 05:52:59;;;;;;;39.95;26.85;;;9.50;99.90;;;;;;5064714;28;20128;-66
2023/03/18 05:55:27;;;;;;;40.58;27.98;;;9.50;99.90;;;;;;5033079;28;20112;-66
2023/03/18 05:57:53;;;;;;;38.78;27.52;;;9.50;99.90;;;;;;5064559;28;20041;-66
2023/03/18 06:00:19;;;;;;;38.45;26.23;;;9.50;99.90;;;;;;5047822;28;20046;-66
2023/03/18 06:02:45;;;;;;;43.70;29.60;;;9.50;99.90;;;;;;5048144;28;20041;-66
2023/03/18 06:05:12;;;;;;;40.17;28.83;;;9.40;99.90;;;;;;5032759;28;20041;-66
2023/03/18 06:07:38;;;;;;;41.60;27.30;;;9.40;99.90;;;;;;5030990;28;20520;-66
2023/03/18 06:10:05;;;;;;;39.05;26.98;;;9.40;99.90;;;;;;5064726;28;20037;-66
2023/03/18 06:12:31;;;;;;;43.20;27.35;;;9.40;99.90;;;;;;5032980;28;20052;-66
2023/03/18 06:14:57;;;;;;;38.97;27.33;;;9.30;99.90;;;;;;5064491;28;20049;-66
2023/03/18 06:17:23;;;;;;;42.90;28.92;;;9.30;99.90;;;;;;5032730;28;20453;-66
2023/03/18 06:19:49;;;;;;;38.10;27.55;;;9.30;99.90;;;;;;5032148;28;20502;-66
2023/03/18 06:22:15;;;;;;;41.17;29.35;;;9.40;99.90;;;;;;5032243;28;20520;-66
2023/03/18 06:24:42;;;;;;;38.13;27.92;;;9.40;99.90;;;;;;5031093;28;20121;-66
2023/03/18 06:27:08;;;;;;;43.47;30.20;;;9.40;99.90;;;;;;5063619;28;20042;-66
2023/03/18 06:29:35;;;;;;;38.13;28.08;;;9.40;99.90;;;;;;5063970;28;20054;-66
2023/03/18 06:32:02;;;;;;;43.30;28.35;;;9.50;99.90;;;;;;5032078;28;20556;-66
2023/03/18 06:34:28;;;;;;;39.88;27.63;;;9.50;99.90;;;;;;5030678;28;20056;-66
2023/03/18 06:36:55;;;;;;;43.28;28.10;;;9.60;99.90;;;;;;5032507;28;20719;-66
2023/03/18 06:39:21;;;;;;;39.95;27.60;;;9.60;99.90;;;;;;5031104;28;20454;-66
2023/03/18 06:41:47;;;;;;;41.63;28.17;;;9.70;99.90;;;;;;5032100;28;20045;-66
2023/03/18 06:44:13;;;;;;;39.13;27.05;;;9.70;99.90;;;;;;5030998;28;20076;-66
2023/03/18 06:46:39;;;;;;;35.88;26.42;;;9.80;99.90;;;;;;5014153;28;20041;-66
2023/03/18 06:49:06;;;;;;;41.33;26.55;;;9.80;99.90;;;;;;5030276;28;20045;-66
2023/03/18 06:51:33;;;;;;;37.63;25.90;;;9.80;99.90;;;;;;5031993;28;20367;-66
2023/03/18 06:53:59;;;;;;;33.47;25.75;;;9.90;99.90;;;;;;5030760;28;20025;-66
2023/03/18 06:56:25;;;;;;;37.05;26.95;;;9.90;99.90;;;;;;5030253;28;20376;-66
2023/03/18 06:58:51;;;;;;;37.00;27.23;;;9.90;99.90;;;;;;5063535;28;20044;-66
2023/03/18 07:01:18;;;;;;;39.92;26.80;;;10.00;99.90;;;;;;5063539;28;20045;-66
2023/03/18 07:03:44;;;;;;;40.28;26.88;;;10.00;99.90;;;;;;5063039;28;20099;-66
2023/03/18 07:06:10;;;;;;;39.85;27.55;;;10.00;99.90;;;;;;5030324;28;20121;-66
2023/03/18 07:08:37;;;;;;;41.05;28.50;;;10.00;99.90;;;;;;5062908;28;20054;-66
2023/03/18 07:11:03;;;;;;;38.95;27.42;;;10.00;99.90;;;;;;5031493;28;20040;-66
2023/03/18 07:13:30;;;;;;;38.80;26.25;;;10.10;99.90;;;;;;5063665;28;20049;-66
2023/03/18 07:15:55;;;;;;;38.15;25.67;;;10.10;99.90;;;;;;5031208;28;20052;-66
2023/03/18 07:18:22;;;;;;;37.17;27.02;;;10.10;99.90;;;;;;5031325;28;20038;-66
2023/03/18 07:20:49;;;;;;;35.95;26.23;;;10.20;99.90;;;;;;5031466;28;20045;-66
2023/03/18 07:23:14;;;;;;;37.95;26.20;;;10.20;99.90;;;;;;5031016;28;20052;-66
2023/03/18 07:25:41;;;;;;;35.75;25.50;;;10.20;99.90;;;;;;5031067;28;20049;-68
2023/03/18 07:28:07;;;;;;;38.60;25.17;;;10.20;99.90;;;;;;5031223;28;20116;-67
2023/03/18 07:30:33;;;;;;;38.65;27.48;;;10.30;99.90;;;;;;5031201;28;20039;-67
2023/03/18 07:32:59;;;;;;;41.53;29.83;;;10.30;99.90;;;;;;5013227;28;20720;-68
2023/03/18 07:35:26;;;;;;;42.88;29.27;;;10.20;99.90;;;;;;5062477;28;20049;-68
2023/03/18 07:37:52;;;;;;;48.35;33.85;;;10.20;99.90;;;;;;5062105;28;20037;-70
2023/03/18 07:40:18;;;;;;;46.13;33.67;;;10.20;99.90;;;;;;5030431;28;20037;-70
2023/03/18 07:42:44;;;;;;;49.55;35.35;;;10.20;99.90;;;;;;5062118;28;20417;-70
2023/03/18 07:45:10;;;;;;;55.08;37.13;;;10.20;99.90;;;;;;5029905;28;20034;-70
2023/03/18 07:47:36;;;;;;;54.45;36.35;;;10.20;99.90;;;;;;5062428;28;20121;-70
2023/03/18 07:50:03;;;;;;;52.10;39.33;;;10.20;99.90;;;;;;5030197;28;20048;-70
2023/03/18 07:52:28;;;;;;;60.40;40.13;;;10.30;99.90;;;;;;5061575;28;20052;-70
2023/03/18 07:54:54;;;;;;;54.97;37.38;;;10.30;99.90;;;;;;5062354;28;20049;-70
2023/03/18 07:57:20;;;;;;;53.58;35.13;;;10.30;99.90;;;;;;5062200;28;20052;-70
2023/03/18 07:59:46;;;;;;;50.67;33.90;;;10.30;99.90;;;;;;5061546;28;20076;-70
2023/03/18 08:02:14;;;;;;;48.13;33.00;;;10.30;99.90;;;;;;5028466;28;20044;-70
2023/03/18 08:04:42;;;;;;;46.22;30.02;;;10.30;99.90;;;;;;5030080;28;20595;-70
2023/03/18 08:07:09;;;;;;;48.63;33.40;;;10.30;99.90;;;;;;5029918;28;20044;-70
2023/03/18 08:09:35;;;;;;;51.20;34.55;;;10.40;99.90;;;;;;5028808;28;20056;-70
2023/03/18 08:12:01;;;;;;;50.78;33.75;;;10.40;99.90;;;;;;5029615;28;20041;-70
2023/03/18 08:14:27;;;;;;;48.67;37.35;;;10.30;99.90;;;;;;5063315;28;20107;-70
2023/03/18 08:16:53;;;;;;;56.05;37.78;;;10.40;99.90;;;;;;5049494;28;20045;-70
2023/03/18 08:19:20;;;;;;;53.80;37.92;;;10.40;99.90;;;;;;5048184;28;20043;-70
2023/03/18 08:21:46;;;;;;;55.92;38.53;;;10.40;99.90;;;;;;5052416;28;20155;-71
2023/03/18 08:24:13;;;;;;;67.45;44.45;;;10.50;99.90;;;;;;5052525;28;20044;-70
2023/03/18 08:26:39;;;;;;;68.68;43.55;;;10.50;99.90;;;;;;5052649;28;20095;-70
2023/03/18 08:29:05;;;;;;;65.35;42.13;;;10.60;99.90;;;;;;5053505;28;20396;-71
2023/03/18 08:31:31;;;;;;;59.08;40.42;;;10.70;99.90;;;;;;5051944;28;20128;-71
2023/03/18 08:33:59;;;;;;;56.13;37.70;;;10.80;99.90;;;;;;5051419;28;20119;-70
2023/03/18 08:36:26;;;;;;;65.68;43.78;;;10.90;99.90;;;;;;5052471;28;20037;-71
2023/03/18 08:38:52;;;;;;;57.20;40.58;;;10.90;99.90;;;;;;5052228;28;20048;-70
2023/03/18 08:41:18;;;;;;;51.35;40.03;;;11.10;99.90;;;;;;5051573;28;20041;-70
2023/03/18 08:43:43;;;;;;;49.58;35.25;;;11.20;99.90;;;;;;5051647;28;20163;-70
2023/03/18 08:46:09;;;;;;;45.35;35.75;;;11.60;99.90;;;;;;5051653;28;20123;-70
2023/03/18 08:48:35;;;;;;;40.60;33.92;;;12.20;99.90;;;;;;5048942;28;20062;-70
2023/03/18 08:51:07;;;;;;;44.10;33.65;;;12.60;99.90;;;;;;5035201;28;20060;-69
2023/03/18 08:53:33;;;;;;;40.72;30.45;;;12.90;99.90;;;;;;5051966;28;20041;-70
2023/03/18 08:55:59;;;;;;;44.90;29.30;;;13.20;99.90;;;;;;5050681;28;20037;-68
2023/03/18 08:58:26;;;;;;;38.05;30.33;;;13.40;99.90;;;;;;5051436;28;20060;-68
2023/03/18 09:00:54;;;;;;;34.58;27.67;;;13.50;99.90;;;;;;5052063;28;20033;-68
2023/03/18 09:03:20;;;;;;;35.20;26.83;;;13.60;99.90;;;;;;5051625;28;20074;-68
2023/03/18 09:05:51;;;;;;;40.53;29.15;;;13.50;99.90;;;;;;5050271;28;20501;-67
2023/03/18 09:08:17;;;;;;;36.25;29.08;;;13.50;99.90;;;;;;5033367;28;20043;-67
2023/03/18 09:10:49;;;;;;;33.72;27.98;;;13.70;99.90;;;;;;5051546;28;20040;-67
2023/03/18 09:13:15;;;;;;;36.08;27.30;;;14.20;99.90;;;;;;5050415;28;20083;-67
2023/03/18 09:15:41;;;;;;;30.05;25.73;;;14.50;99.90;;;;;;5049586;28;20076;-67
2023/03/18 09:18:07;;;;;;;32.35;25.95;;;14.60;99.90;;;;;;5050056;28;20116;-67
2023/03/18 09:20:33;;;;;;;36.08;25.73;;;14.70;99.90;;;;;;5049899;28;20270;-67
2023/03/18 09:22:59;;;;;;;31.40;26.15;;;14.80;99.90;;;;;;5050621;28;20118;-67
2023/03/18 09:25:25;;;;;;;28.58;25.38;;;14.80;99.90;;;;;;5050880;28;20068;-67
2023/03/18 09:27:52;;;;;;;33.65;26.70;;;14.60;99.90;;;;;;5033680;28;20045;-67
2023/03/18 09:30:18;;;;;;;34.72;27.20;;;14.40;99.90;;;;;;5049350;28;20041;-67
2023/03/18 09:32:45;;;;;;;38.10;29.25;;;14.30;99.90;;;;;;5050342;28;20049;-66
2023/03/18 09:35:11;;;;;;;34.80;28.35;;;14.30;99.90;;;;;;5051223;28;20195;-67
2023/03/18 09:37:37;;;;;;;39.60;30.50;;;14.50;99.90;;;;;;5050382;28;20040;-66
2023/03/18 09:40:06;;;;;;;42.15;30.83;;;14.50;99.90;;;;;;5050866;28;20037;-66
2023/03/18 09:42:51;;;;;;;37.30;28.73;;;14.30;99.90;;;;;;5051056;28;20398;-66
2023/03/18 09:45:25;;;;;;;40.00;29.55;;;14.20;99.90;;;;;;5049555;28;20037;-66
2023/03/18 09:48:22;;;;;;;34.95;27.83;;;14.20;99.90;;;;;;5049815;28;20068;-66
2023/03/18 09:51:04;;;;;;;32.90;26.65;;;14.20;99.90;;;;;;5050621;28;20162;-66
2023/03/18 09:53:52;;;;;;;29.00;24.88;;;14.70;99.90;;;;;;5050808;28;20163;-66
2023/03/18 09:56:25;;;;;;;28.65;25.08;;;15.50;99.90;;;;;;5051081;28;20037;-66
2023/03/18 09:59:11;;;;;;;28.60;21.88;;;16.30;99.90;;;;;;5048733;28;20048;-66
2023/03/18 10:01:38;;;;;;;25.70;22.15;;;16.90;99.90;;;;;;5049534;28;20433;-66
2023/03/18 10:04:22;;;;;;;28.20;21.60;;;16.70;99.90;;;;;;5048869;28;20116;-66
2023/03/18 10:06:55;;;;;;;28.60;21.35;;;16.50;99.90;;;;;;5049333;28;20036;-66
2023/03/18 10:09:38;;;;;;;23.63;20.65;;;16.40;99.90;;;;;;5050520;28;20163;-67
2023/03/18 10:12:18;;;;;;;24.98;18.80;;;16.60;99.90;;;;;;5048864;28;20285;-66
2023/03/18 10:14:50;;;;;;;25.35;20.70;;;17.00;99.90;;;;;;5050614;28;20455;-66
2023/03/18 10:17:30;;;;;;;26.95;20.52;;;17.90;99.90;;;;;;5047442;28;20449;-66
2023/03/18 10:19:58;;;;;;;18.80;14.50;;;19.10;99.90;;;;;;5049797;28;20112;-66
2023/03/18 10:23:01;;;;;;;21.63;18.80;;;20.20;99.90;;;;;;5048578;28;20072;-66
2023/03/18 10:25:48;;;;;;;15.75;12.18;;;20.90;99.90;;;;;;5050012;28;20049;-66
2023/03/18 10:28:53;;;;;;;16.33;11.57;;;21.50;99.90;;;;;;5033377;28;20560;-66
2023/03/18 10:31:56;;;;;;;11.25;10.15;;;21.50;99.90;;;;;;5050070;28;20045;-67
2023/03/18 10:34:30;;;;;;;14.68;10.23;;;21.00;99.90;;;;;;5049943;28;20052;-66
2023/03/18 10:37:13;;;;;;;13.82;12.00;;;20.70;99.90;;;;;;5049944;28;20041;-66
2023/03/18 10:39:40;;;;;;;18.27;14.05;;;20.30;99.90;;;;;;5049415;28;20539;-67
2023/03/18 10:42:29;;;;;;;15.32;13.73;;;20.00;99.90;;;;;;5050040;28;20060;-66
2023/03/18 10:45:07;;;;;;;14.73;13.13;;;19.20;99.90;;;;;;5049926;28;20045;-66
2023/03/18 10:47:39;;;;;;;14.75;12.43;;;19.00;99.90;;;;;;5049913;28;20041;-67
2023/03/18 10:50:16;;;;;;;18.05;15.40;;;19.40;99.90;;;;;;5051220;28;20468;-66
2023/03/18 10:52:50;;;;;;;15.20;11.68;;;19.50;99.90;;;;;;5051141;28;20076;-66
2023/03/18 10:55:21;;;;;;;13.02;11.50;;;19.30;99.90;;;;;;5051135;28;20473;-66
2023/03/18 10:57:47;;;;;;;14.65;12.20;;;19.20;99.90;;;;;;5049918;28;20102;-66
2023/03/18 11:00:39;;;;;;;14.00;12.48;;;19.50;99.90;;;;;;5049106;28;20105;-66
2023/03/18 11:03:06;;;;;;;17.13;12.68;;;19.80;99.90;;;;;;5049086;28;20053;-66
2023/03/18 11:05:35;;;;;;;14.32;12.10;;;19.70;99.90;;;;;;5050989;28;20060;-66
2023/03/18 11:08:07;;;;;;;14.63;11.95;;;20.00;99.90;;;;;;5050318;28;20101;-66
2023/03/18 11:10:46;;;;;;;11.38;10.15;;;20.20;99.90;;;;;;5049859;28;20183;-66
2023/03/18 11:13:16;;;;;;;13.57;9.75;;;20.10;99.90;;;;;;5049090;28;20052;-66
2023/03/18 11:15:53;;;;;;;11.85;9.98;;;19.60;99.90;;;;;;5049318;28;20414;-66
2023/03/18 11:18:23;;;;;;;12.88;9.27;;;19.50;99.90;;;;;;5048797;28;20398;-67
2023/03/18 11:21:00;;;;;;;10.40;9.30;;;19.70;99.90;;;;;;5048012;28;20048;-66
2023/03/18 11:23:44;;;;;;;11.05;8.98;;;20.20;99.90;;;;;;5048408;28;20041;-66
2023/03/18 11:26:20;;;;;;;9.20;7.78;;;20.70;99.90;;;;;;5049282;28;20099;-66
2023/03/18 11:28:46;;;;;;;10.43;7.75;;;21.20;99.90;;;;;;5049505;28;20041;-66
2023/03/18 11:31:20;;;;;;;10.10;8.32;;;20.70;99.90;;;;;;5048403;28;20049;-66
2023/03/18 11:33:45;;;;;;;12.15;9.40;;;19.90;99.90;;;;;;5031637;28;20063;-66
2023/03/18 11:36:22;;;;;;;10.25;7.50;;;19.30;99.90;;;;;;5047926;28;20517;-66
2023/03/18 11:39:02;;;;;;;10.13;7.75;;;18.60;99.90;;;;;;5048008;28;20047;-66
2023/03/18 11:41:31;;;;;;;8.25;6.93;;;18.30;99.90;;;;;;5048024;28;20194;-66
2023/03/18 11:43:58;;;;;;;7.13;5.45;;;18.20;99.90;;;;;;5047060;28;20040;-66
2023/03/18 11:46:31;;;;;;;6.30;4.80;;;18.70;99.90;;;;;;5046709;28;20037;-66
2023/03/18 11:48:58;;;;;;;8.70;6.75;;;19.20;99.90;;;;;;5046841;28;20120;-66
2023/03/18 11:51:33;;;;;;;8.20;6.03;;;19.50;99.90;;;;;;5031042;28;20041;-66
2023/03/18 11:54:14;;;;;;;7.85;6.22;;;19.30;99.90;;;;;;5047941;28;20044;-66
2023/03/18 11:56:48;;;;;;;8.07;7.03;;;19.20;99.90;;;;;;5051866;28;20094;-66
2023/03/18 11:59:23;;;;;;;7.85;6.63;;;19.40;99.90;;;;;;5035392;28;20044;-66
2023/03/18 12:02:16;;;;;;;7.80;6.80;;;19.70;99.90;;;;;;5051623;28;20128;-66
2023/03/18 12:04:47;;;;;;;8.32;6.90;;;20.30;99.90;;;;;;5051714;28;20037;-66
2023/03/18 12:07:32;;;;;;;8.75;6.57;;;20.60;99.90;;;;;;5035883;28;20553;-66
2023/03/18 12:10:18;;;;;;;7.05;5.72;;;20.50;99.90;;;;;;5052884;28;20045;-66
2023/03/18 12:12:53;;;;;;;6.45;5.85;;;20.40;99.90;;;;;;5053383;28;20107;-66
2023/03/18 12:15:42;;;;;;;7.18;5.70;;;20.60;99.90;;;;;;5053113;28;20566;-66
2023/03/18 12:18:51;;;;;;;6.75;5.57;;;20.80;99.90;;;;;;5051100;28;20048;-66
2023/03/18 12:21:29;;;;;;;;;;;20.50;99.90;;;;;;5052241;28;20509;-66
2023/03/18 12:24:06;;;;;;;8.70;5.47;;;20.00;99.90;;;;;;5049166;28;19920;-66
2023/03/18 12:26:39;;;;;;;9.25;6.88;;;19.60;99.90;;;;;;5053378;28;20053;-66
2023/03/18 12:29:43;;;;;;;8.68;6.00;;;19.20;99.90;;;;;;5052647;28;20048;-66
2023/03/18 12:32:25;;;;;;;7.32;6.45;;;18.90;99.90;;;;;;5022029;28;20143;-66
2023/03/18 12:35:06;;;;;;;11.13;6.75;;;18.50;99.90;;;;;;5052457;28;20079;-66
2023/03/18 12:37:50;;;;;;;5.78;5.18;;;18.10;99.90;;;;;;5052466;28;20047;-66
2023/03/18 12:40:21;;;;;;;6.65;4.18;;;18.60;99.90;;;;;;5051999;28;20033;-66
2023/03/18 12:43:13;;;;;;;7.60;4.63;;;19.20;99.90;;;;;;5053299;28;20040;-66
2023/03/18 12:45:44;;;;;;;8.10;5.30;;;19.30;99.90;;;;;;5044802;28;20056;-66